sensor_id;sensor_type;location;lat;lon;timestamp;P1;durP1;ratioP1;P2;durP2;ratioP2
72920;SDS011;61064;51.654;5.476;2022-08-21T00:00:44;9.77;;;3.63;;
72920;SDS011;61064;51.654;5.476;2022-08-21T00:03:10;8.63;;;3.10;;
72920;SDS011;61064;51.654;5.476;2022-08-21T00:05:38;8.35;;;3.50;;
72920;SDS011;61064;51.654;5.476;2022-08-21T00:08:06;7.35;;;2.80;;
72920;SDS011;61064;51.654;5.476;2022-08-21T00:10:32;7.43;;;2.97;;
72920;SDS011;61064;51.654;5.476;2022-08-21T00:12:57;9.32;;;3.20;;
72920;SDS011;61064;51.654;5.476;2022-08-21T00:15:26;9.88;;;3.42;;
72920;SDS011;61064;51.654;5.476;2022-08-21T00:17:53;8.65;;;3.53;;
72920;SDS011;61064;51.654;5.476;2022-08-21T00:20:19;8.93;;;3.50;;
72920;SDS011;61064;51.654;5.476;2022-08-21T00:22:46;8.43;;;3.13;;
72920;SDS011;61064;51.654;5.476;2022-08-21T00:25:12;9.57;;;3.20;;
72920;SDS011;61064;51.654;5.476;2022-08-21T00:27:39;9.68;;;3.40;;
72920;SDS011;61064;51.654;5.476;2022-08-21T00:30:05;9.77;;;3.60;;
72920;SDS011;61064;51.654;5.476;2022-08-21T00:32:31;10.63;;;3.50;;
72920;SDS011;61064;51.654;5.476;2022-08-21T00:34:57;12.23;;;4.00;;
72920;SDS011;61064;51.654;5.476;2022-08-21T00:37:23;9.23;;;3.30;;
72920;SDS011;61064;51.654;5.476;2022-08-21T00:39:49;8.52;;;3.70;;
72920;SDS011;61064;51.654;5.476;2022-08-21T00:42:14;9.47;;;3.40;;
72920;SDS011;61064;51.654;5.476;2022-08-21T00:44:44;9.48;;;3.78;;
72920;SDS011;61064;51.654;5.476;2022-08-21T00:47:11;9.57;;;3.50;;
72920;SDS011;61064;51.654;5.476;2022-08-21T00:49:38;9.80;;;3.43;;
72920;SDS011;61064;51.654;5.476;2022-08-21T00:52:05;10.10;;;3.20;;
72920;SDS011;61064;51.654;5.476;2022-08-21T00:54:34;8.50;;;3.20;;
72920;SDS011;61064;51.654;5.476;2022-08-21T00:57:00;10.37;;;3.70;;
72920;SDS011;61064;51.654;5.476;2022-08-21T00:59:32;8.63;;;3.28;;
72920;SDS011;61064;51.654;5.476;2022-08-21T01:02:02;8.68;;;3.60;;
72920;SDS011;61064;51.654;5.476;2022-08-21T01:04:29;9.98;;;3.60;;
72920;SDS011;61064;51.654;5.476;2022-08-21T01:06:55;13.03;;;3.60;;
72920;SDS011;61064;51.654;5.476;2022-08-21T01:09:20;10.07;;;4.33;;
72920;SDS011;61064;51.654;5.476;2022-08-21T01:11:46;10.30;;;3.83;;
72920;SDS011;61064;51.654;5.476;2022-08-21T01:14:12;9.77;;;4.00;;
72920;SDS011;61064;51.654;5.476;2022-08-21T01:16:40;9.13;;;3.45;;
72920;SDS011;61064;51.654;5.476;2022-08-21T01:19:10;10.75;;;3.85;;
72920;SDS011;61064;51.654;5.476;2022-08-21T01:21:36;13.60;;;3.90;;
72920;SDS011;61064;51.654;5.476;2022-08-21T01:24:02;9.07;;;3.63;;
72920;SDS011;61064;51.654;5.476;2022-08-21T01:26:28;9.48;;;3.75;;
72920;SDS011;61064;51.654;5.476;2022-08-21T01:28:59;8.68;;;3.67;;
72920;SDS011;61064;51.654;5.476;2022-08-21T01:31:36;8.67;;;3.80;;
72920;SDS011;61064;51.654;5.476;2022-08-21T01:34:02;8.82;;;3.40;;
72920;SDS011;61064;51.654;5.476;2022-08-21T01:36:28;10.75;;;4.40;;
72920;SDS011;61064;51.654;5.476;2022-08-21T01:38:55;8.13;;;3.65;;
72920;SDS011;61064;51.654;5.476;2022-08-21T01:41:21;11.02;;;5.15;;
72920;SDS011;61064;51.654;5.476;2022-08-21T01:43:47;11.33;;;4.83;;
72920;SDS011;61064;51.654;5.476;2022-08-21T01:46:13;12.15;;;4.25;;
72920;SDS011;61064;51.654;5.476;2022-08-21T01:48:39;9.53;;;3.27;;
72920;SDS011;61064;51.654;5.476;2022-08-21T01:51:05;12.30;;;3.67;;
72920;SDS011;61064;51.654;5.476;2022-08-21T01:53:31;9.07;;;3.65;;
72920;SDS011;61064;51.654;5.476;2022-08-21T01:56:00;7.45;;;3.70;;
72920;SDS011;61064;51.654;5.476;2022-08-21T01:58:26;7.65;;;3.53;;
72920;SDS011;61064;51.654;5.476;2022-08-21T02:00:52;8.83;;;3.70;;
72920;SDS011;61064;51.654;5.476;2022-08-21T02:03:17;9.23;;;3.83;;
72920;SDS011;61064;51.654;5.476;2022-08-21T02:05:42;9.17;;;3.80;;
72920;SDS011;61064;51.654;5.476;2022-08-21T02:08:08;6.83;;;3.47;;
72920;SDS011;61064;51.654;5.476;2022-08-21T02:10:33;9.43;;;3.70;;
72920;SDS011;61064;51.654;5.476;2022-08-21T02:12:59;8.33;;;3.37;;
72920;SDS011;61064;51.654;5.476;2022-08-21T02:15:26;8.82;;;3.50;;
72920;SDS011;61064;51.654;5.476;2022-08-21T02:17:54;9.23;;;3.33;;
72920;SDS011;61064;51.654;5.476;2022-08-21T02:20:27;9.77;;;3.30;;
72920;SDS011;61064;51.654;5.476;2022-08-21T02:22:58;8.40;;;3.42;;
72920;SDS011;61064;51.654;5.476;2022-08-21T02:25:26;7.20;;;3.40;;
72920;SDS011;61064;51.654;5.476;2022-08-21T02:27:52;9.02;;;3.40;;
72920;SDS011;61064;51.654;5.476;2022-08-21T02:30:28;9.15;;;3.35;;
72920;SDS011;61064;51.654;5.476;2022-08-21T02:32:57;9.23;;;3.07;;
72920;SDS011;61064;51.654;5.476;2022-08-21T02:35:22;9.35;;;3.28;;
72920;SDS011;61064;51.654;5.476;2022-08-21T02:37:53;7.10;;;3.10;;
72920;SDS011;61064;51.654;5.476;2022-08-21T02:40:24;10.35;;;3.58;;
72920;SDS011;61064;51.654;5.476;2022-08-21T02:42:52;9.85;;;3.58;;
72920;SDS011;61064;51.654;5.476;2022-08-21T02:45:17;7.60;;;3.13;;
72920;SDS011;61064;51.654;5.476;2022-08-21T02:47:50;9.48;;;3.30;;
72920;SDS011;61064;51.654;5.476;2022-08-21T02:50:22;7.45;;;3.28;;
72920;SDS011;61064;51.654;5.476;2022-08-21T02:52:50;8.27;;;3.53;;
72920;SDS011;61064;51.654;5.476;2022-08-21T02:55:20;8.63;;;3.77;;
72920;SDS011;61064;51.654;5.476;2022-08-21T02:57:47;9.80;;;3.50;;
72920;SDS011;61064;51.654;5.476;2022-08-21T03:00:13;8.57;;;3.72;;
72920;SDS011;61064;51.654;5.476;2022-08-21T03:02:40;9.13;;;3.40;;
72920;SDS011;61064;51.654;5.476;2022-08-21T03:05:06;10.80;;;3.78;;
72920;SDS011;61064;51.654;5.476;2022-08-21T03:07:33;8.97;;;4.00;;
72920;SDS011;61064;51.654;5.476;2022-08-21T03:10:00;10.05;;;3.80;;
72920;SDS011;61064;51.654;5.476;2022-08-21T03:12:26;9.10;;;3.90;;
72920;SDS011;61064;51.654;5.476;2022-08-21T03:14:51;10.43;;;3.83;;
72920;SDS011;61064;51.654;5.476;2022-08-21T03:17:18;10.57;;;3.88;;
72920;SDS011;61064;51.654;5.476;2022-08-21T03:19:43;7.13;;;3.60;;
72920;SDS011;61064;51.654;5.476;2022-08-21T03:22:09;9.20;;;3.72;;
72920;SDS011;61064;51.654;5.476;2022-08-21T03:24:34;9.73;;;4.13;;
72920;SDS011;61064;51.654;5.476;2022-08-21T03:27:00;8.40;;;3.57;;
72920;SDS011;61064;51.654;5.476;2022-08-21T03:29:25;11.25;;;4.18;;
72920;SDS011;61064;51.654;5.476;2022-08-21T03:31:51;9.13;;;3.70;;
72920;SDS011;61064;51.654;5.476;2022-08-21T03:34:22;9.35;;;3.97;;
72920;SDS011;61064;51.654;5.476;2022-08-21T03:36:47;8.52;;;4.15;;
72920;SDS011;61064;51.654;5.476;2022-08-21T03:39:14;9.60;;;5.28;;
72920;SDS011;61064;51.654;5.476;2022-08-21T03:41:41;13.27;;;6.28;;
72920;SDS011;61064;51.654;5.476;2022-08-21T03:44:06;13.23;;;6.20;;
72920;SDS011;61064;51.654;5.476;2022-08-21T03:46:32;12.63;;;6.33;;
72920;SDS011;61064;51.654;5.476;2022-08-21T03:48:58;14.48;;;6.40;;
72920;SDS011;61064;51.654;5.476;2022-08-21T03:51:23;15.70;;;6.30;;
72920;SDS011;61064;51.654;5.476;2022-08-21T03:53:49;12.43;;;6.55;;
72920;SDS011;61064;51.654;5.476;2022-08-21T03:56:17;12.30;;;6.50;;
72920;SDS011;61064;51.654;5.476;2022-08-21T03:58:43;13.88;;;6.85;;
72920;SDS011;61064;51.654;5.476;2022-08-21T04:01:09;13.57;;;6.80;;
72920;SDS011;61064;51.654;5.476;2022-08-21T04:03:34;12.52;;;6.82;;
72920;SDS011;61064;51.654;5.476;2022-08-21T04:06:01;15.27;;;7.28;;
72920;SDS011;61064;51.654;5.476;2022-08-21T04:08:27;14.00;;;7.03;;
72920;SDS011;61064;51.654;5.476;2022-08-21T04:10:53;12.70;;;7.17;;
72920;SDS011;61064;51.654;5.476;2022-08-21T04:13:21;14.60;;;7.03;;
72920;SDS011;61064;51.654;5.476;2022-08-21T04:15:47;13.93;;;7.22;;
72920;SDS011;61064;51.654;5.476;2022-08-21T04:18:13;13.07;;;7.33;;
72920;SDS011;61064;51.654;5.476;2022-08-21T04:20:38;13.13;;;7.70;;
72920;SDS011;61064;51.654;5.476;2022-08-21T04:23:06;14.93;;;7.35;;
72920;SDS011;61064;51.654;5.476;2022-08-21T04:25:31;14.45;;;7.40;;
72920;SDS011;61064;51.654;5.476;2022-08-21T04:27:57;15.60;;;7.30;;
72920;SDS011;61064;51.654;5.476;2022-08-21T04:30:23;17.15;;;7.88;;
72920;SDS011;61064;51.654;5.476;2022-08-21T04:32:49;14.70;;;7.33;;
72920;SDS011;61064;51.654;5.476;2022-08-21T04:35:16;15.73;;;7.85;;
72920;SDS011;61064;51.654;5.476;2022-08-21T04:37:45;18.13;;;7.80;;
72920;SDS011;61064;51.654;5.476;2022-08-21T04:40:11;13.57;;;7.43;;
72920;SDS011;61064;51.654;5.476;2022-08-21T04:42:42;14.63;;;6.90;;
72920;SDS011;61064;51.654;5.476;2022-08-21T04:47:44;16.15;;;7.22;;
72920;SDS011;61064;51.654;5.476;2022-08-21T04:50:10;14.47;;;7.40;;
72920;SDS011;61064;51.654;5.476;2022-08-21T04:52:35;13.70;;;7.00;;
72920;SDS011;61064;51.654;5.476;2022-08-21T04:55:02;13.63;;;7.18;;
72920;SDS011;61064;51.654;5.476;2022-08-21T04:57:28;15.80;;;7.40;;
72920;SDS011;61064;51.654;5.476;2022-08-21T04:59:53;13.87;;;6.97;;
72920;SDS011;61064;51.654;5.476;2022-08-21T05:02:19;14.73;;;6.85;;
72920;SDS011;61064;51.654;5.476;2022-08-21T05:04:49;15.60;;;6.90;;
72920;SDS011;61064;51.654;5.476;2022-08-21T05:07:26;12.23;;;6.27;;
72920;SDS011;61064;51.654;5.476;2022-08-21T05:09:55;15.50;;;6.90;;
72920;SDS011;61064;51.654;5.476;2022-08-21T05:12:20;14.55;;;6.82;;
72920;SDS011;61064;51.654;5.476;2022-08-21T05:14:46;11.07;;;6.57;;
72920;SDS011;61064;51.654;5.476;2022-08-21T05:17:12;14.10;;;6.80;;
72920;SDS011;61064;51.654;5.476;2022-08-21T05:19:38;15.03;;;7.07;;
72920;SDS011;61064;51.654;5.476;2022-08-21T05:22:03;14.88;;;6.70;;
72920;SDS011;61064;51.654;5.476;2022-08-21T05:24:29;14.53;;;7.20;;
72920;SDS011;61064;51.654;5.476;2022-08-21T05:26:54;14.10;;;6.80;;
72920;SDS011;61064;51.654;5.476;2022-08-21T05:29:20;13.40;;;6.30;;
72920;SDS011;61064;51.654;5.476;2022-08-21T05:31:46;13.75;;;6.47;;
72920;SDS011;61064;51.654;5.476;2022-08-21T05:34:18;12.65;;;6.53;;
72920;SDS011;61064;51.654;5.476;2022-08-21T05:36:45;15.05;;;6.20;;
72920;SDS011;61064;51.654;5.476;2022-08-21T05:39:11;11.30;;;6.00;;
72920;SDS011;61064;51.654;5.476;2022-08-21T05:41:36;16.98;;;6.53;;
72920;SDS011;61064;51.654;5.476;2022-08-21T05:44:01;18.37;;;6.20;;
72920;SDS011;61064;51.654;5.476;2022-08-21T05:46:27;14.30;;;6.07;;
72920;SDS011;61064;51.654;5.476;2022-08-21T05:48:52;14.07;;;5.70;;
72920;SDS011;61064;51.654;5.476;2022-08-21T05:51:18;14.03;;;5.90;;
72920;SDS011;61064;51.654;5.476;2022-08-21T05:53:43;11.90;;;5.88;;
72920;SDS011;61064;51.654;5.476;2022-08-21T05:56:10;14.13;;;5.77;;
72920;SDS011;61064;51.654;5.476;2022-08-21T05:58:36;12.73;;;5.68;;
72920;SDS011;61064;51.654;5.476;2022-08-21T06:01:02;13.20;;;5.78;;
72920;SDS011;61064;51.654;5.476;2022-08-21T06:03:29;14.03;;;5.33;;
72920;SDS011;61064;51.654;5.476;2022-08-21T06:05:56;11.63;;;4.85;;
72920;SDS011;61064;51.654;5.476;2022-08-21T06:08:22;12.90;;;5.25;;
72920;SDS011;61064;51.654;5.476;2022-08-21T06:10:49;12.60;;;5.30;;
72920;SDS011;61064;51.654;5.476;2022-08-21T06:13:16;11.90;;;4.50;;
72920;SDS011;61064;51.654;5.476;2022-08-21T06:15:42;13.82;;;5.68;;
72920;SDS011;61064;51.654;5.476;2022-08-21T06:18:08;11.82;;;4.82;;
72920;SDS011;61064;51.654;5.476;2022-08-21T06:20:34;13.45;;;5.15;;
72920;SDS011;61064;51.654;5.476;2022-08-21T06:23:00;12.20;;;4.73;;
72920;SDS011;61064;51.654;5.476;2022-08-21T06:25:27;14.52;;;4.40;;
72920;SDS011;61064;51.654;5.476;2022-08-21T06:27:53;13.65;;;4.40;;
72920;SDS011;61064;51.654;5.476;2022-08-21T06:30:18;12.70;;;4.50;;
72920;SDS011;61064;51.654;5.476;2022-08-21T06:32:46;15.15;;;4.55;;
72920;SDS011;61064;51.654;5.476;2022-08-21T06:35:12;14.43;;;4.07;;
72920;SDS011;61064;51.654;5.476;2022-08-21T06:37:37;11.40;;;3.90;;
72920;SDS011;61064;51.654;5.476;2022-08-21T06:40:03;11.97;;;4.60;;
72920;SDS011;61064;51.654;5.476;2022-08-21T06:42:30;14.88;;;4.35;;
72920;SDS011;61064;51.654;5.476;2022-08-21T06:44:57;14.73;;;4.23;;
72920;SDS011;61064;51.654;5.476;2022-08-21T06:47:23;12.23;;;4.10;;
72920;SDS011;61064;51.654;5.476;2022-08-21T06:49:48;14.03;;;4.00;;
72920;SDS011;61064;51.654;5.476;2022-08-21T06:52:14;16.73;;;4.43;;
72920;SDS011;61064;51.654;5.476;2022-08-21T06:54:40;15.00;;;4.25;;
72920;SDS011;61064;51.654;5.476;2022-08-21T06:57:05;13.07;;;3.77;;
72920;SDS011;61064;51.654;5.476;2022-08-21T06:59:31;11.82;;;4.15;;
72920;SDS011;61064;51.654;5.476;2022-08-21T07:01:58;13.05;;;3.90;;
72920;SDS011;61064;51.654;5.476;2022-08-21T07:04:24;13.25;;;3.90;;
72920;SDS011;61064;51.654;5.476;2022-08-21T07:06:49;12.17;;;3.70;;
72920;SDS011;61064;51.654;5.476;2022-08-21T07:09:15;13.63;;;4.40;;
72920;SDS011;61064;51.654;5.476;2022-08-21T07:11:40;15.85;;;4.38;;
72920;SDS011;61064;51.654;5.476;2022-08-21T07:14:06;11.17;;;3.77;;
72920;SDS011;61064;51.654;5.476;2022-08-21T07:16:31;14.20;;;4.13;;
72920;SDS011;61064;51.654;5.476;2022-08-21T07:18:57;11.73;;;3.72;;
72920;SDS011;61064;51.654;5.476;2022-08-21T07:21:22;13.63;;;3.87;;
72920;SDS011;61064;51.654;5.476;2022-08-21T07:23:48;12.70;;;4.40;;
72920;SDS011;61064;51.654;5.476;2022-08-21T07:26:16;13.40;;;4.18;;
72920;SDS011;61064;51.654;5.476;2022-08-21T07:28:45;14.10;;;4.10;;
72920;SDS011;61064;51.654;5.476;2022-08-21T07:31:13;12.57;;;4.20;;
72920;SDS011;61064;51.654;5.476;2022-08-21T07:33:40;13.77;;;3.92;;
72920;SDS011;61064;51.654;5.476;2022-08-21T07:36:06;12.00;;;4.00;;
72920;SDS011;61064;51.654;5.476;2022-08-21T07:38:32;19.07;;;4.60;;
72920;SDS011;61064;51.654;5.476;2022-08-21T07:40:57;13.90;;;4.10;;
72920;SDS011;61064;51.654;5.476;2022-08-21T07:43:25;14.80;;;4.32;;
72920;SDS011;61064;51.654;5.476;2022-08-21T07:45:50;12.13;;;3.37;;
72920;SDS011;61064;51.654;5.476;2022-08-21T07:48:16;12.63;;;3.92;;
72920;SDS011;61064;51.654;5.476;2022-08-21T07:50:42;13.63;;;3.50;;
72920;SDS011;61064;51.654;5.476;2022-08-21T07:53:08;15.07;;;3.70;;
72920;SDS011;61064;51.654;5.476;2022-08-21T07:55:33;12.47;;;3.40;;
72920;SDS011;61064;51.654;5.476;2022-08-21T07:58:00;13.05;;;3.95;;
72920;SDS011;61064;51.654;5.476;2022-08-21T08:00:26;10.40;;;3.07;;
72920;SDS011;61064;51.654;5.476;2022-08-21T08:02:53;13.60;;;3.88;;
72920;SDS011;61064;51.654;5.476;2022-08-21T08:05:21;11.63;;;3.63;;
72920;SDS011;61064;51.654;5.476;2022-08-21T08:07:48;11.50;;;3.35;;
72920;SDS011;61064;51.654;5.476;2022-08-21T08:10:14;15.23;;;3.60;;
72920;SDS011;61064;51.654;5.476;2022-08-21T08:12:41;11.10;;;3.17;;
72920;SDS011;61064;51.654;5.476;2022-08-21T08:15:09;14.50;;;3.10;;
72920;SDS011;61064;51.654;5.476;2022-08-21T08:17:39;15.50;;;3.80;;
72920;SDS011;61064;51.654;5.476;2022-08-21T08:20:07;12.77;;;3.50;;
72920;SDS011;61064;51.654;5.476;2022-08-21T08:22:34;11.88;;;2.75;;
72920;SDS011;61064;51.654;5.476;2022-08-21T08:25:02;12.68;;;3.55;;
72920;SDS011;61064;51.654;5.476;2022-08-21T08:27:31;12.80;;;2.90;;
72920;SDS011;61064;51.654;5.476;2022-08-21T08:29:57;11.85;;;3.22;;
72920;SDS011;61064;51.654;5.476;2022-08-21T08:32:25;13.75;;;3.42;;
72920;SDS011;61064;51.654;5.476;2022-08-21T08:34:51;12.17;;;3.20;;
72920;SDS011;61064;51.654;5.476;2022-08-21T08:37:17;10.70;;;2.88;;
72920;SDS011;61064;51.654;5.476;2022-08-21T08:39:47;13.25;;;3.35;;
72920;SDS011;61064;51.654;5.476;2022-08-21T08:42:15;15.40;;;3.95;;
72920;SDS011;61064;51.654;5.476;2022-08-21T08:44:55;14.07;;;3.20;;
72920;SDS011;61064;51.654;5.476;2022-08-21T08:47:25;14.67;;;3.10;;
72920;SDS011;61064;51.654;5.476;2022-08-21T08:49:54;13.35;;;3.28;;
72920;SDS011;61064;51.654;5.476;2022-08-21T08:52:32;13.93;;;3.53;;
72920;SDS011;61064;51.654;5.476;2022-08-21T08:55:11;15.05;;;3.42;;
72920;SDS011;61064;51.654;5.476;2022-08-21T08:57:41;13.52;;;4.30;;
72920;SDS011;61064;51.654;5.476;2022-08-21T09:00:11;11.40;;;3.00;;
72920;SDS011;61064;51.654;5.476;2022-08-21T09:02:39;15.45;;;2.97;;
72920;SDS011;61064;51.654;5.476;2022-08-21T09:05:06;12.77;;;2.88;;
72920;SDS011;61064;51.654;5.476;2022-08-21T09:07:40;13.00;;;2.78;;
72920;SDS011;61064;51.654;5.476;2022-08-21T09:10:22;14.90;;;2.95;;
72920;SDS011;61064;51.654;5.476;2022-08-21T09:13:04;9.67;;;2.50;;
72920;SDS011;61064;51.654;5.476;2022-08-21T09:18:39;13.32;;;2.88;;
72920;SDS011;61064;51.654;5.476;2022-08-21T09:27:13;11.33;;;2.33;;
72920;SDS011;61064;51.654;5.476;2022-08-21T09:29:42;13.50;;;2.40;;
72920;SDS011;61064;51.654;5.476;2022-08-21T09:32:32;12.10;;;2.42;;
72920;SDS011;61064;51.654;5.476;2022-08-21T09:35:03;11.20;;;2.40;;
72920;SDS011;61064;51.654;5.476;2022-08-21T09:37:33;12.52;;;2.60;;
72920;SDS011;61064;51.654;5.476;2022-08-21T09:43:02;11.90;;;2.20;;
72920;SDS011;61064;51.654;5.476;2022-08-21T09:45:40;9.00;;;1.75;;
72920;SDS011;61064;51.654;5.476;2022-08-21T09:48:11;10.52;;;1.60;;
72920;SDS011;61064;51.654;5.476;2022-08-21T09:50:38;8.50;;;1.48;;
72920;SDS011;61064;51.654;5.476;2022-08-21T09:53:05;7.20;;;1.80;;
72920;SDS011;61064;51.654;5.476;2022-08-21T09:55:58;6.53;;;1.40;;
72920;SDS011;61064;51.654;5.476;2022-08-21T09:58:45;8.38;;;1.55;;
72920;SDS011;61064;51.654;5.476;2022-08-21T10:01:17;7.82;;;1.70;;
72920;SDS011;61064;51.654;5.476;2022-08-21T10:03:47;8.45;;;1.73;;
72920;SDS011;61064;51.654;5.476;2022-08-21T10:06:21;6.97;;;1.60;;
72920;SDS011;61064;51.654;5.476;2022-08-21T10:08:49;11.23;;;1.80;;
72920;SDS011;61064;51.654;5.476;2022-08-21T10:11:16;7.75;;;1.52;;
72920;SDS011;61064;51.654;5.476;2022-08-21T10:14:05;7.90;;;1.40;;
72920;SDS011;61064;51.654;5.476;2022-08-21T10:16:58;8.70;;;1.63;;
72920;SDS011;61064;51.654;5.476;2022-08-21T10:24:43;7.05;;;1.70;;
72920;SDS011;61064;51.654;5.476;2022-08-21T10:30:08;10.53;;;2.10;;
72920;SDS011;61064;51.654;5.476;2022-08-21T10:44:04;9.83;;;2.03;;
72920;SDS011;61064;51.654;5.476;2022-08-21T10:52:20;9.23;;;2.40;;
72920;SDS011;61064;51.654;5.476;2022-08-21T10:55:12;10.18;;;2.30;;
72920;SDS011;61064;51.654;5.476;2022-08-21T11:00:23;9.18;;;2.25;;
72920;SDS011;61064;51.654;5.476;2022-08-21T11:02:58;12.75;;;2.35;;
72920;SDS011;61064;51.654;5.476;2022-08-21T11:05:31;11.05;;;2.00;;
72920;SDS011;61064;51.654;5.476;2022-08-21T11:08:06;10.55;;;2.10;;
72920;SDS011;61064;51.654;5.476;2022-08-21T11:10:38;7.87;;;1.50;;
72920;SDS011;61064;51.654;5.476;2022-08-21T11:13:11;7.45;;;1.40;;
72920;SDS011;61064;51.654;5.476;2022-08-21T11:15:52;6.32;;;1.50;;
72920;SDS011;61064;51.654;5.476;2022-08-21T11:18:36;7.78;;;1.60;;
72920;SDS011;61064;51.654;5.476;2022-08-21T11:26:59;8.45;;;1.50;;
72920;SDS011;61064;51.654;5.476;2022-08-21T11:29:28;9.20;;;1.40;;
72920;SDS011;61064;51.654;5.476;2022-08-21T11:32:02;7.47;;;1.10;;
72920;SDS011;61064;51.654;5.476;2022-08-21T11:37:16;7.83;;;1.40;;
72920;SDS011;61064;51.654;5.476;2022-08-21T11:40:03;7.93;;;1.60;;
72920;SDS011;61064;51.654;5.476;2022-08-21T11:42:42;9.82;;;1.65;;
72920;SDS011;61064;51.654;5.476;2022-08-21T11:45:14;9.98;;;1.60;;
72920;SDS011;61064;51.654;5.476;2022-08-21T11:47:49;9.05;;;1.70;;
72920;SDS011;61064;51.654;5.476;2022-08-21T11:50:27;7.33;;;1.47;;
72920;SDS011;61064;51.654;5.476;2022-08-21T11:53:16;8.20;;;1.50;;
72920;SDS011;61064;51.654;5.476;2022-08-21T11:56:17;8.43;;;1.60;;
72920;SDS011;61064;51.654;5.476;2022-08-21T11:58:49;6.97;;;1.13;;
72920;SDS011;61064;51.654;5.476;2022-08-21T12:01:33;5.57;;;1.30;;
72920;SDS011;61064;51.654;5.476;2022-08-21T12:04:15;7.97;;;1.30;;
72920;SDS011;61064;51.654;5.476;2022-08-21T12:06:47;6.65;;;1.10;;
72920;SDS011;61064;51.654;5.476;2022-08-21T12:12:06;11.75;;;1.48;;
72920;SDS011;61064;51.654;5.476;2022-08-21T12:14:37;8.30;;;1.38;;
72920;SDS011;61064;51.654;5.476;2022-08-21T12:17:08;7.10;;;1.50;;
72920;SDS011;61064;51.654;5.476;2022-08-21T12:19:42;8.38;;;1.15;;
72920;SDS011;61064;51.654;5.476;2022-08-21T12:22:10;8.43;;;1.25;;
72920;SDS011;61064;51.654;5.476;2022-08-21T12:24:45;7.05;;;1.20;;
72920;SDS011;61064;51.654;5.476;2022-08-21T12:29:48;9.10;;;1.30;;
72920;SDS011;61064;51.654;5.476;2022-08-21T12:34:41;8.30;;;1.50;;
72920;SDS011;61064;51.654;5.476;2022-08-21T12:37:25;7.50;;;1.20;;
72920;SDS011;61064;51.654;5.476;2022-08-21T12:40:23;7.18;;;1.35;;
72920;SDS011;61064;51.654;5.476;2022-08-21T12:42:54;7.82;;;1.25;;
72920;SDS011;61064;51.654;5.476;2022-08-21T12:45:27;7.95;;;1.50;;
72920;SDS011;61064;51.654;5.476;2022-08-21T12:53:16;7.85;;;1.42;;
72920;SDS011;61064;51.654;5.476;2022-08-21T12:56:12;8.80;;;1.30;;
72920;SDS011;61064;51.654;5.476;2022-08-21T12:58:40;7.38;;;1.40;;
72920;SDS011;61064;51.654;5.476;2022-08-21T13:03:49;7.53;;;1.30;;
72920;SDS011;61064;51.654;5.476;2022-08-21T13:06:19;6.18;;;1.10;;
72920;SDS011;61064;51.654;5.476;2022-08-21T13:08:47;6.40;;;1.10;;
72920;SDS011;61064;51.654;5.476;2022-08-21T13:11:19;7.53;;;1.42;;
72920;SDS011;61064;51.654;5.476;2022-08-21T13:13:53;6.90;;;1.20;;
72920;SDS011;61064;51.654;5.476;2022-08-21T13:16:20;6.72;;;1.63;;
72920;SDS011;61064;51.654;5.476;2022-08-21T13:18:52;9.05;;;1.45;;
72920;SDS011;61064;51.654;5.476;2022-08-21T13:21:30;6.93;;;1.23;;
72920;SDS011;61064;51.654;5.476;2022-08-21T13:24:21;8.85;;;1.40;;
72920;SDS011;61064;51.654;5.476;2022-08-21T13:26:49;7.97;;;1.10;;
72920;SDS011;61064;51.654;5.476;2022-08-21T13:29:16;6.25;;;1.20;;
72920;SDS011;61064;51.654;5.476;2022-08-21T13:31:51;8.50;;;1.40;;
72920;SDS011;61064;51.654;5.476;2022-08-21T13:34:30;9.07;;;1.40;;
72920;SDS011;61064;51.654;5.476;2022-08-21T13:37:00;7.93;;;1.35;;
72920;SDS011;61064;51.654;5.476;2022-08-21T13:39:28;8.37;;;1.43;;
72920;SDS011;61064;51.654;5.476;2022-08-21T13:41:55;8.98;;;1.20;;
72920;SDS011;61064;51.654;5.476;2022-08-21T13:44:32;10.10;;;1.20;;
72920;SDS011;61064;51.654;5.476;2022-08-21T13:47:01;7.03;;;1.33;;
72920;SDS011;61064;51.654;5.476;2022-08-21T13:49:30;8.13;;;1.30;;
72920;SDS011;61064;51.654;5.476;2022-08-21T13:52:00;8.13;;;1.40;;
72920;SDS011;61064;51.654;5.476;2022-08-21T13:57:01;7.47;;;1.63;;
72920;SDS011;61064;51.654;5.476;2022-08-21T13:59:28;7.60;;;1.35;;
72920;SDS011;61064;51.654;5.476;2022-08-21T14:02:01;8.07;;;1.43;;
72920;SDS011;61064;51.654;5.476;2022-08-21T14:04:39;7.45;;;1.30;;
72920;SDS011;61064;51.654;5.476;2022-08-21T14:07:17;7.13;;;1.40;;
72920;SDS011;61064;51.654;5.476;2022-08-21T14:09:53;8.18;;;1.30;;
72920;SDS011;61064;51.654;5.476;2022-08-21T14:12:24;8.02;;;1.15;;
72920;SDS011;61064;51.654;5.476;2022-08-21T14:14:54;6.13;;;1.23;;
72920;SDS011;61064;51.654;5.476;2022-08-21T14:17:28;8.73;;;1.50;;
72920;SDS011;61064;51.654;5.476;2022-08-21T14:19:56;7.20;;;1.58;;
72920;SDS011;61064;51.654;5.476;2022-08-21T14:24:47;8.73;;;1.30;;
72920;SDS011;61064;51.654;5.476;2022-08-21T14:27:15;7.50;;;1.27;;
72920;SDS011;61064;51.654;5.476;2022-08-21T14:29:42;7.00;;;1.17;;
72920;SDS011;61064;51.654;5.476;2022-08-21T14:32:21;8.23;;;1.30;;
72920;SDS011;61064;51.654;5.476;2022-08-21T14:34:51;6.53;;;1.10;;
72920;SDS011;61064;51.654;5.476;2022-08-21T14:37:17;7.78;;;1.50;;
72920;SDS011;61064;51.654;5.476;2022-08-21T14:39:43;8.67;;;1.67;;
72920;SDS011;61064;51.654;5.476;2022-08-21T14:42:09;6.18;;;1.30;;
72920;SDS011;61064;51.654;5.476;2022-08-21T14:44:35;7.23;;;1.30;;
72920;SDS011;61064;51.654;5.476;2022-08-21T14:47:00;8.40;;;1.33;;
72920;SDS011;61064;51.654;5.476;2022-08-21T14:49:27;7.47;;;1.40;;
72920;SDS011;61064;51.654;5.476;2022-08-21T14:51:55;8.67;;;1.70;;
72920;SDS011;61064;51.654;5.476;2022-08-21T14:54:26;9.18;;;1.48;;
72920;SDS011;61064;51.654;5.476;2022-08-21T14:56:52;6.65;;;1.45;;
72920;SDS011;61064;51.654;5.476;2022-08-21T14:59:19;7.82;;;1.30;;
72920;SDS011;61064;51.654;5.476;2022-08-21T15:01:45;8.43;;;1.55;;
72920;SDS011;61064;51.654;5.476;2022-08-21T15:04:11;8.63;;;1.33;;
72920;SDS011;61064;51.654;5.476;2022-08-21T15:06:36;11.20;;;1.60;;
72920;SDS011;61064;51.654;5.476;2022-08-21T15:09:02;8.60;;;1.45;;
72920;SDS011;61064;51.654;5.476;2022-08-21T15:11:29;6.50;;;1.42;;
72920;SDS011;61064;51.654;5.476;2022-08-21T15:13:58;10.30;;;1.53;;
72920;SDS011;61064;51.654;5.476;2022-08-21T15:16:27;9.20;;;1.50;;
72920;SDS011;61064;51.654;5.476;2022-08-21T15:18:54;7.70;;;1.55;;
72920;SDS011;61064;51.654;5.476;2022-08-21T15:21:19;9.93;;;1.27;;
72920;SDS011;61064;51.654;5.476;2022-08-21T15:23:45;9.15;;;1.50;;
72920;SDS011;61064;51.654;5.476;2022-08-21T15:26:10;10.63;;;1.87;;
72920;SDS011;61064;51.654;5.476;2022-08-21T15:28:36;11.38;;;1.50;;
72920;SDS011;61064;51.654;5.476;2022-08-21T15:31:03;9.00;;;1.40;;
72920;SDS011;61064;51.654;5.476;2022-08-21T15:33:28;8.55;;;1.40;;
72920;SDS011;61064;51.654;5.476;2022-08-21T15:35:54;8.43;;;1.67;;
72920;SDS011;61064;51.654;5.476;2022-08-21T15:38:19;6.63;;;1.90;;
72920;SDS011;61064;51.654;5.476;2022-08-21T15:40:45;9.77;;;2.50;;
72920;SDS011;61064;51.654;5.476;2022-08-21T15:43:21;8.03;;;1.90;;
72920;SDS011;61064;51.654;5.476;2022-08-21T15:45:52;8.60;;;1.70;;
72920;SDS011;61064;51.654;5.476;2022-08-21T15:48:17;8.52;;;1.65;;
72920;SDS011;61064;51.654;5.476;2022-08-21T15:50:43;7.90;;;1.90;;
72920;SDS011;61064;51.654;5.476;2022-08-21T15:53:08;8.45;;;1.67;;
72920;SDS011;61064;51.654;5.476;2022-08-21T15:55:34;9.43;;;1.77;;
72920;SDS011;61064;51.654;5.476;2022-08-21T15:57:59;8.23;;;1.33;;
72920;SDS011;61064;51.654;5.476;2022-08-21T16:00:25;7.85;;;1.73;;
72920;SDS011;61064;51.654;5.476;2022-08-21T16:02:53;7.85;;;1.30;;